Time;durP1;ratioP1;P1;durP2;ratioP2;P2;SDS_P1;SDS_P2;PMS_P1;PMS_P2;Temp;Humidity;BMP_temperature;BMP_pressure;BME280_temperature;BME280_humidity;BME280_pressure;Samples;Min_cycle;Max_cycle;Signal;HPM_P1;HPM_P2
2022/06/03 00:02:42;;;;;;;5.20;3.65;;;10.40;99.90;;;;;;4772563;30;20063;-67
2022/06/03 00:05:42;;;;;;;5.03;3.40;;;10.40;99.90;;;;;;4789736;29;20055;-67
2022/06/03 00:08:10;;;;;;;6.40;3.38;;;10.40;99.90;;;;;;4782120;30;20059;-67
2022/06/03 00:11:04;;;;;;;5.18;3.33;;;10.40;99.90;;;;;;4773880;29;20112;-67
2022/06/03 00:14:00;;;;;;;5.32;3.72;;;10.30;99.90;;;;;;4779453;29;20108;-66
2022/06/03 00:16:37;;;;;;;4.93;3.20;;;10.30;99.90;;;;;;4787886;29;20047;-67
2022/06/03 00:19:22;;;;;;;7.43;3.60;;;10.30;99.90;;;;;;4787502;30;20067;-67
2022/06/03 00:22:31;;;;;;;5.13;3.38;;;10.30;99.90;;;;;;4773060;30;20516;-67
2022/06/03 00:25:35;;;;;;;5.43;3.40;;;10.20;99.90;;;;;;4755254;30;20055;-66
2022/06/03 00:28:20;;;;;;;4.72;3.92;;;10.20;99.90;;;;;;4764915;30;20055;-67
2022/06/03 00:31:20;;;;;;;7.65;3.90;;;10.20;99.90;;;;;;4773754;30;20074;-67
2022/06/03 00:33:59;;;;;;;4.78;3.70;;;10.10;99.90;;;;;;4786738;29;20165;-67
2022/06/03 00:36:40;;;;;;;5.28;4.07;;;10.20;99.90;;;;;;4772500;30;20063;-67
2022/06/03 00:39:24;;;;;;;5.32;3.60;;;10.10;99.90;;;;;;4775218;30;20408;-66
2022/06/03 00:42:05;;;;;;;5.10;3.75;;;10.10;99.90;;;;;;4787691;29;20100;-67
2022/06/03 00:44:56;;;;;;;5.13;3.88;;;10.10;99.90;;;;;;4773411;29;20047;-67
2022/06/03 00:47:40;;;;;;;4.55;3.80;;;10.10;99.90;;;;;;4788015;30;20505;-66
2022/06/03 00:50:35;;;;;;;7.22;4.03;;;10.20;99.90;;;;;;4771453;30;20512;-68
2022/06/03 00:53:23;;;;;;;5.82;3.80;;;10.10;99.90;;;;;;4770266;30;20151;-67
2022/06/03 00:56:19;;;;;;;7.10;4.07;;;10.00;99.90;;;;;;4786117;30;20066;-67
2022/06/03 00:59:06;;;;;;;5.40;3.85;;;10.10;99.90;;;;;;4788571;29;20059;-66
2022/06/03 01:02:21;;;;;;;5.35;4.15;;;10.00;99.90;;;;;;4787433;29;20055;-67
2022/06/03 01:05:10;;;;;;;5.50;4.07;;;10.00;99.90;;;;;;4770104;30;20142;-69
2022/06/03 01:08:13;;;;;;;5.15;4.15;;;10.00;99.90;;;;;;4778725;29;20130;-69
2022/06/03 01:10:38;;;;;;;;;;;10.00;99.90;;;;;;4788306;29;20494;-68
2022/06/03 01:13:23;;;;;;;5.60;4.05;;;9.90;99.90;;;;;;4786097;29;19926;-68
2022/06/03 01:16:18;;;;;;;5.72;4.10;;;9.90;99.90;;;;;;4788945;29;20124;-68
2022/06/03 01:19:32;;;;;;;7.28;4.10;;;9.90;99.90;;;;;;4783821;29;20052;-68
2022/06/03 01:22:39;;;;;;;7.30;4.30;;;9.90;99.90;;;;;;4774470;30;20071;-68
2022/06/03 01:25:11;;;;;;;5.93;4.30;;;9.80;99.90;;;;;;4771622;30;20083;-69
2022/06/03 01:28:01;;;;;;;8.20;4.50;;;9.80;99.90;;;;;;4770226;29;20470;-69
2022/06/03 01:31:15;;;;;;;5.88;4.88;;;9.80;99.90;;;;;;4788749;29;20524;-69
2022/06/03 01:34:02;;;;;;;5.07;4.30;;;9.80;99.90;;;;;;4768328;29;20063;-68
2022/06/03 01:36:42;;;;;;;7.53;4.50;;;9.70;99.90;;;;;;4788784;29;20109;-68
2022/06/03 01:39:23;;;;;;;6.30;4.60;;;9.70;99.90;;;;;;4779241;29;20078;-69
2022/06/03 01:42:15;;;;;;;6.40;4.50;;;9.70;99.90;;;;;;4787643;29;20063;-66
2022/06/03 01:45:00;;;;;;;;;;;9.60;99.90;;;;;;4784625;29;20508;-67
2022/06/03 01:47:25;;;;;;;6.68;4.68;;;9.60;99.90;;;;;;4785928;29;19929;-67
2022/06/03 01:50:08;;;;;;;5.07;4.57;;;9.60;99.90;;;;;;4788441;29;20513;-68
2022/06/03 01:52:55;;;;;;;6.63;4.72;;;9.50;99.90;;;;;;4788534;29;20058;-67
2022/06/03 01:55:52;;;;;;;5.20;4.53;;;9.50;99.90;;;;;;4772419;30;20055;-67
2022/06/03 01:58:18;;;;;;;5.00;4.60;;;9.50;99.90;;;;;;4787576;29;20055;-67
2022/06/03 02:00:54;;;;;;;6.20;4.60;;;9.50;99.90;;;;;;4788048;30;20525;-68
2022/06/03 02:03:44;;;;;;;5.40;4.15;;;9.40;99.90;;;;;;4786931;29;20059;-67
2022/06/03 02:06:15;;;;;;;6.15;4.63;;;9.40;99.90;;;;;;4788042;29;20051;-67
2022/06/03 02:09:01;;;;;;;5.53;4.93;;;9.40;99.90;;;;;;4787316;30;20134;-67
2022/06/03 02:11:58;;;;;;;6.47;4.88;;;9.40;99.90;;;;;;4775406;29;20052;-67
2022/06/03 02:15:04;;;;;;;5.85;5.05;;;9.40;99.90;;;;;;4780486;29;20067;-67
2022/06/03 02:17:49;;;;;;;5.68;4.63;;;9.30;99.90;;;;;;4786477;29;20063;-67
2022/06/03 02:20:46;;;;;;;7.45;5.50;;;9.30;99.90;;;;;;4771518;29;20139;-67
2022/06/03 02:23:31;;;;;;;8.40;4.50;;;9.30;99.90;;;;;;4770271;30;20052;-67
2022/06/03 02:26:34;;;;;;;7.18;5.40;;;9.30;99.90;;;;;;4780891;29;20139;-67
2022/06/03 02:32:23;;;;;;;7.63;4.80;;;9.30;99.90;;;;;;4770476;30;20055;-67
2022/06/03 02:35:19;;;;;;;6.82;5.03;;;9.30;99.90;;;;;;4771313;30;20127;-67
2022/06/03 02:37:45;;;;;;;7.70;5.28;;;9.30;99.90;;;;;;4772605;29;20085;-67
2022/06/03 02:40:32;;;;;;;6.30;5.15;;;9.30;99.90;;;;;;4771178;30;20446;-68
2022/06/03 02:43:55;;;;;;;6.40;5.55;;;9.30;99.90;;;;;;4785463;29;20528;-67
2022/06/03 02:46:51;;;;;;;6.13;5.32;;;9.30;99.90;;;;;;4731108;30;20164;-67
2022/06/03 02:49:25;;;;;;;8.48;6.38;;;9.30;99.90;;;;;;4732521;30;20068;-68
2022/06/03 02:52:32;;;;;;;8.82;5.72;;;9.30;99.90;;;;;;4770146;29;20091;-67
2022/06/03 02:55:07;;;;;;;7.03;5.68;;;9.30;99.90;;;;;;4762134;30;20066;-67
2022/06/03 02:57:51;;;;;;;6.82;5.93;;;9.20;99.90;;;;;;4773903;30;20155;-67
2022/06/03 03:00:35;;;;;;;8.93;5.80;;;9.20;99.90;;;;;;4787002;29;20082;-68
2022/06/03 03:03:30;;;;;;;8.63;6.22;;;9.20;99.90;;;;;;4787576;29;20073;-67
2022/06/03 03:06:14;;;;;;;9.90;6.72;;;9.20;99.90;;;;;;4787152;29;20077;-67
2022/06/03 03:08:55;;;;;;;9.20;6.55;;;9.20;99.90;;;;;;4785480;30;20112;-68
2022/06/03 03:11:50;;;;;;;6.47;5.88;;;9.20;99.90;;;;;;4771463;30;20063;-68
2022/06/03 03:14:34;;;;;;;8.75;6.35;;;9.20;99.90;;;;;;4761035;29;20479;-67
2022/06/03 03:17:26;;;;;;;7.25;6.32;;;9.10;99.90;;;;;;4783238;30;20055;-67
2022/06/03 03:20:05;;;;;;;11.03;6.27;;;9.20;99.90;;;;;;4783904;29;20428;-67
2022/06/03 03:22:53;;;;;;;9.52;6.45;;;9.20;99.90;;;;;;4769452;30;20382;-67
2022/06/03 03:25:45;;;;;;;7.90;6.32;;;9.20;99.90;;;;;;4768455;30;20138;-67
2022/06/03 03:28:40;;;;;;;;;;;9.20;99.90;;;;;;4778609;29;20047;-67
2022/06/03 03:31:41;;;;;;;6.75;6.15;;;9.20;99.90;;;;;;4751323;30;20052;-67
2022/06/03 03:34:07;;;;;;;8.60;6.70;;;9.20;99.90;;;;;;4769459;30;20071;-68
2022/06/03 03:36:50;;;;;;;7.13;6.30;;;9.20;99.90;;;;;;4777805;29;20425;-68
2022/06/03 03:39:55;;;;;;;11.10;6.55;;;9.20;99.90;;;;;;4769321;29;20087;-68
2022/06/03 03:43:02;;;;;;;9.10;6.15;;;9.30;99.90;;;;;;4786634;29;20073;-68
2022/06/03 03:45:54;;;;;;;10.20;7.03;;;9.30;99.90;;;;;;4765231;30;20070;-68
2022/06/03 03:48:42;;;;;;;10.85;6.90;;;9.30;99.90;;;;;;4786372;29;20443;-68
2022/06/03 03:51:37;;;;;;;7.82;6.43;;;9.40;99.90;;;;;;4771349;30;20067;-68
2022/06/03 03:54:15;;;;;;;8.98;6.72;;;9.40;99.90;;;;;;4785817;30;20081;-68
2022/06/03 03:56:57;;;;;;;11.30;6.25;;;9.40;99.90;;;;;;4786339;29;20070;-68
2022/06/03 04:00:01;;;;;;;9.88;6.07;;;9.50;99.90;;;;;;4788895;29;20066;-68
2022/06/03 04:02:48;;;;;;;9.40;6.55;;;9.50;99.90;;;;;;4789808;30;20063;-68
2022/06/03 04:05:32;;;;;;;9.18;6.68;;;9.50;99.90;;;;;;4790282;30;20057;-68
2022/06/03 04:08:22;;;;;;;8.13;6.00;;;9.60;99.90;;;;;;4781822;30;20059;-68
2022/06/03 04:10:47;;;;;;;8.90;6.50;;;9.60;99.90;;;;;;4758944;30;20063;-67
2022/06/03 04:13:42;;;;;;;9.02;6.63;;;9.60;99.90;;;;;;4773695;30;20070;-68
2022/06/03 04:16:30;;;;;;;10.60;6.25;;;9.70;99.90;;;;;;4788708;29;20059;-68
2022/06/03 04:19:32;;;;;;;9.15;6.47;;;9.70;99.90;;;;;;4790257;29;20059;-68
2022/06/03 04:22:27;;;;;;;10.13;6.82;;;9.70;99.90;;;;;;4789675;29;20102;-68
2022/06/03 04:25:31;;;;;;;9.20;6.88;;;9.70;99.90;;;;;;4787861;30;20095;-68
2022/06/03 04:28:25;;;;;;;10.40;7.05;;;9.80;99.90;;;;;;4737042;30;20386;-69
2022/06/03 04:31:09;;;;;;;11.23;6.90;;;9.80;99.90;;;;;;4787753;29;20059;-67
2022/06/03 04:33:43;;;;;;;8.77;6.82;;;9.90;99.90;;;;;;4788734;29;20197;-67
2022/06/03 04:36:33;;;;;;;10.77;6.72;;;9.90;99.90;;;;;;4771896;30;20059;-67
2022/06/03 04:39:39;;;;;;;10.27;7.30;;;9.90;99.90;;;;;;4790090;29;20115;-67
2022/06/03 04:42:31;;;;;;;8.75;6.65;;;9.90;99.90;;;;;;4789831;29;20051;-68
2022/06/03 04:45:11;;;;;;;10.95;7.13;;;10.00;99.90;;;;;;4788663;29;20059;-67
2022/06/03 04:48:14;;;;;;;10.30;6.53;;;10.10;99.90;;;;;;4788581;29;20059;-66
2022/06/03 04:51:15;;;;;;;10.32;6.78;;;10.10;99.90;;;;;;4774583;30;20059;-66
2022/06/03 04:54:05;;;;;;;10.63;7.60;;;10.20;99.90;;;;;;4784599;30;20130;-69
2022/06/03 04:57:22;;;;;;;9.20;7.15;;;10.20;99.90;;;;;;4783768;29;20051;-66
2022/06/03 05:00:16;;;;;;;12.38;7.32;;;10.20;99.90;;;;;;4770561;30;20083;-68
2022/06/03 05:03:08;;;;;;;11.48;7.40;;;10.30;99.90;;;;;;4781110;30;20508;-68
2022/06/03 05:06:18;;;;;;;11.93;7.72;;;10.40;99.90;;;;;;4784399;29;20051;-68
2022/06/03 05:09:04;;;;;;;10.20;7.15;;;10.40;99.90;;;;;;4784841;29;20513;-68
2022/06/03 05:12:27;;;;;;;9.65;7.15;;;10.50;99.90;;;;;;4781848;30;20066;-69
2022/06/03 05:15:20;;;;;;;10.20;7.40;;;10.60;99.90;;;;;;4772418;30;20138;-67
2022/06/03 05:18:01;;;;;;;10.55;7.50;;;10.70;99.90;;;;;;4784948;30;20059;-67
2022/06/03 05:20:45;;;;;;;11.18;7.53;;;10.80;99.90;;;;;;4776058;29;20056;-67
2022/06/03 05:23:32;;;;;;;10.70;6.90;;;10.90;99.90;;;;;;4787830;29;20108;-67
2022/06/03 05:26:22;;;;;;;8.93;7.13;;;11.00;99.90;;;;;;4769457;30;20105;-67
2022/06/03 05:29:29;;;;;;;11.00;7.18;;;11.50;99.90;;;;;;4774282;30;20207;-68
2022/06/03 05:32:32;;;;;;;11.43;7.43;;;12.80;99.90;;;;;;4786193;29;20570;-67
2022/06/03 05:35:00;;;;;;;;;;;14.10;99.90;;;;;;4783916;29;20059;-68
2022/06/03 05:37:38;;;;;;;10.00;6.63;;;15.10;99.90;;;;;;4789493;29;20096;-67
2022/06/03 05:40:37;;;;;;;8.60;6.68;;;15.90;99.90;;;;;;4782277;30;20131;-68
2022/06/03 05:43:40;;;;;;;10.40;6.57;;;16.60;99.90;;;;;;4783921;30;20112;-68
2022/06/03 05:46:30;;;;;;;8.43;6.50;;;17.40;99.90;;;;;;4777846;30;20067;-67
2022/06/03 05:49:17;;;;;;;10.27;6.50;;;17.90;99.90;;;;;;4786872;29;20059;-67
2022/06/03 05:51:47;;;;;;;7.85;5.90;;;18.00;99.90;;;;;;4770594;30;20130;-67
2022/06/03 05:54:43;;;;;;;6.50;5.18;;;18.50;99.90;;;;;;4786831;29;20055;-67
2022/06/03 05:57:45;;;;;;;6.18;4.65;;;18.70;99.90;;;;;;4787445;29;20593;-70
2022/06/03 06:00:31;;;;;;;5.72;5.15;;;19.20;99.90;;;;;;4772425;30;20055;-67
2022/06/03 06:03:24;;;;;;;6.63;4.80;;;19.30;99.20;;;;;;4787998;30;20124;-67
2022/06/03 06:06:04;;;;;;;6.38;4.60;;;19.20;95.70;;;;;;4786951;29;20396;-67
2022/06/03 06:08:38;;;;;;;5.28;4.80;;;19.50;99.30;;;;;;4771769;30;20059;-66
2022/06/03 06:11:15;;;;;;;6.40;4.22;;;19.60;99.90;;;;;;4787854;30;20063;-68
2022/06/03 06:14:12;;;;;;;4.88;4.38;;;19.80;99.90;;;;;;4787883;30;20378;-65
2022/06/03 06:16:40;;;;;;;5.45;4.03;;;19.80;99.90;;;;;;4787716;30;20055;-66
2022/06/03 06:19:17;;;;;;;6.57;4.20;;;19.70;99.90;;;;;;4787958;30;20051;-65
2022/06/03 06:22:09;;;;;;;4.75;3.75;;;19.90;99.90;;;;;;4784623;29;20059;-67
2022/06/03 06:24:35;;;;;;;5.93;3.95;;;20.00;81.50;;;;;;4783529;29;20461;-66
2022/06/03 06:27:32;;;;;;;6.15;3.80;;;20.10;99.90;;;;;;4787537;30;20076;-66
2022/06/03 06:30:56;;;;;;;4.68;4.00;;;20.10;97.20;;;;;;4787952;30;20093;-66
2022/06/03 06:33:59;;;;;;;4.53;3.47;;;20.00;86.00;;;;;;4735244;30;20480;-67
2022/06/03 06:36:38;;;;;;;5.10;3.60;;;19.80;86.40;;;;;;4714936;30;20427;-66
2022/06/03 06:39:35;;;;;;;6.15;4.32;;;18.80;99.90;;;;;;4729000;30;20097;-66
2022/06/03 06:42:26;;;;;;;4.20;3.60;;;17.80;99.90;;;;;;4687324;30;20549;-67
2022/06/03 06:45:17;;;;;;;5.68;3.67;;;17.20;99.90;;;;;;4732575;30;20512;-66
2022/06/03 06:48:00;;;;;;;4.30;3.90;;;16.70;99.90;;;;;;4710058;30;20082;-66
2022/06/03 06:50:31;;;;;;;5.93;3.88;;;16.40;99.90;;;;;;4731246;30;20144;-66
2022/06/03 06:53:11;;;;;;;6.00;3.90;;;16.00;99.90;;;;;;4717309;30;20060;-66
2022/06/03 06:56:07;;;;;;;5.03;4.35;;;15.90;99.90;;;;;;4732007;30;20060;-65
2022/06/03 06:59:05;;;;;;;5.07;4.05;;;15.80;99.90;;;;;;4731733;30;20422;-66
2022/06/03 07:01:48;;;;;;;5.18;4.38;;;15.80;99.90;;;;;;4727392;30;20107;-66
2022/06/03 07:04:29;;;;;;;7.90;4.32;;;15.70;99.90;;;;;;4731335;30;20487;-66
2022/06/03 07:07:17;;;;;;;4.95;4.28;;;15.80;99.90;;;;;;4717113;30;20400;-66
2022/06/03 07:10:01;;;;;;;5.68;4.15;;;15.90;99.90;;;;;;4731628;30;20436;-65
2022/06/03 07:12:38;;;;;;;4.78;3.72;;;16.00;99.90;;;;;;4756880;30;20066;-66
2022/06/03 07:15:20;;;;;;;6.85;4.20;;;16.10;99.90;;;;;;4768419;30;20075;-65
2022/06/03 07:21:42;;;;;;;9.20;4.30;;;16.30;99.90;;;;;;4767435;30;20420;-66
2022/06/03 07:24:18;;;;;;;4.28;3.78;;;16.60;99.90;;;;;;4769326;30;20425;-65
2022/06/03 07:26:54;;;;;;;4.78;3.92;;;16.50;99.90;;;;;;4753711;30;20099;-65
2022/06/03 07:29:22;;;;;;;5.93;3.97;;;16.50;99.90;;;;;;4769759;30;20064;-66
2022/06/03 07:32:09;;;;;;;4.38;3.78;;;16.60;99.90;;;;;;4769326;30;20406;-66
2022/06/03 07:35:01;;;;;;;4.70;3.45;;;16.80;99.90;;;;;;4784032;30;20066;-64
2022/06/03 07:37:43;;;;;;;8.00;4.45;;;17.00;99.90;;;;;;4774043;30;20073;-66
2022/06/03 07:40:44;;;;;;;4.85;4.13;;;17.00;99.90;;;;;;4790951;30;20059;-68
2022/06/03 07:43:45;;;;;;;5.88;4.03;;;17.10;99.90;;;;;;4775185;30;20490;-67
2022/06/03 07:46:43;;;;;;;5.22;3.88;;;17.00;99.90;;;;;;4785914;30;20176;-66
2022/06/03 07:49:10;;;;;;;4.80;4.05;;;17.20;99.90;;;;;;4773577;30;20122;-66
2022/06/03 07:51:42;;;;;;;6.80;3.85;;;17.30;99.90;;;;;;4775010;30;20055;-67
2022/06/03 07:54:34;;;;;;;6.15;4.40;;;17.40;99.90;;;;;;4774152;30;20143;-66
2022/06/03 07:57:07;;;;;;;;;;;17.60;99.90;;;;;;4774566;30;20413;-66
2022/06/03 07:59:34;;;;;;;4.55;3.75;;;17.70;99.90;;;;;;4774157;30;19981;-66
2022/06/03 08:02:16;;;;;;;6.47;3.67;;;17.80;99.90;;;;;;4773509;30;20527;-66
2022/06/03 08:04:43;;;;;;;4.90;3.53;;;17.90;99.90;;;;;;4790479;30;20141;-67
2022/06/03 08:12:59;;;;;;;4.95;3.78;;;18.30;99.90;;;;;;4789578;30;20083;-67
2022/06/03 08:15:36;;;;;;;6.05;4.10;;;18.30;99.90;;;;;;4774036;30;20564;-67
2022/06/03 08:18:05;;;;;;;6.10;3.35;;;18.30;99.90;;;;;;4789631;30;20161;-67
2022/06/03 08:20:50;;;;;;;5.60;3.78;;;18.50;99.90;;;;;;4790228;30;20055;-67
2022/06/03 08:23:18;;;;;;;4.53;3.95;;;18.70;99.90;;;;;;4789733;30;20055;-66
2022/06/03 08:25:45;;;;;;;4.85;4.40;;;18.90;99.90;;;;;;4789135;30;20502;-67
2022/06/03 08:28:15;;;;;;;4.85;3.72;;;18.80;99.90;;;;;;4789815;30;20528;-67
2022/06/03 08:30:44;;;;;;;4.57;3.60;;;18.80;99.90;;;;;;4790069;30;20134;-66
2022/06/03 08:33:13;;;;;;;7.38;4.80;;;18.90;99.90;;;;;;4789543;30;20067;-66
2022/06/03 08:35:43;;;;;;;5.97;3.50;;;19.00;99.90;;;;;;4773732;30;20055;-66
2022/06/03 08:38:14;;;;;;;4.50;4.05;;;19.10;99.90;;;;;;4773792;30;20051;-66
2022/06/03 08:41:25;;;;;;;3.70;3.40;;;19.20;99.90;;;;;;4789747;30;20463;-67
2022/06/03 08:43:56;;;;;;;6.10;4.45;;;19.20;99.90;;;;;;4770794;30;20067;-66
2022/06/03 08:46:28;;;;;;;4.72;3.55;;;19.30;99.90;;;;;;4788901;30;20481;-66
2022/06/03 08:49:01;;;;;;;3.85;3.55;;;19.30;99.90;;;;;;4789829;30;20063;-66
2022/06/03 08:51:40;;;;;;;5.93;3.45;;;19.30;99.20;;;;;;4773157;30;20120;-67
2022/06/03 08:54:27;;;;;;;6.15;3.83;;;19.40;92.40;;;;;;4774024;30;20120;-66
2022/06/03 08:57:00;;;;;;;6.00;3.78;;;19.40;93.40;;;;;;4789734;30;20091;-66
2022/06/03 08:59:34;;;;;;;4.55;3.53;;;19.60;99.90;;;;;;4789590;30;20516;-66
2022/06/03 09:02:06;;;;;;;5.93;3.17;;;19.70;99.90;;;;;;4772411;30;20071;-66
2022/06/03 09:04:41;;;;;;;3.88;3.22;;;19.90;99.90;;;;;;4789198;30;20059;-66
2022/06/03 09:07:18;;;;;;;8.05;3.60;;;19.80;99.90;;;;;;4788887;30;20067;-66
2022/06/03 09:10:11;;;;;;;5.53;3.63;;;20.00;98.10;;;;;;4789521;30;20067;-66
2022/06/03 09:12:40;;;;;;;3.95;2.75;;;19.90;86.40;;;;;;4787866;30;20485;-66
2022/06/03 09:15:11;;;;;;;5.63;2.85;;;19.90;99.40;;;;;;4787259;30;20082;-67
2022/06/03 09:18:06;;;;;;;4.07;3.30;;;20.00;97.00;;;;;;4787754;29;20134;-66
2022/06/03 09:20:39;;;;;;;5.13;3.20;;;20.00;97.70;;;;;;4780811;30;20507;-66
2022/06/03 09:23:09;;;;;;;5.50;2.67;;;20.00;85.90;;;;;;4786251;30;20055;-65
2022/06/03 09:25:41;;;;;;;4.88;2.70;;;19.90;94.70;;;;;;4784006;30;20062;-66
2022/06/03 09:28:12;;;;;;;3.60;2.92;;;19.90;90.60;;;;;;4786994;30;20051;-66
2022/06/03 09:30:39;;;;;;;4.20;2.80;;;19.90;90.80;;;;;;4787565;29;20051;-66
2022/06/03 09:33:10;;;;;;;4.30;2.92;;;20.10;83.00;;;;;;4786079;29;20043;-65
2022/06/03 09:35:42;;;;;;;2.80;2.60;;;20.20;83.90;;;;;;4786817;30;20059;-67
2022/06/03 09:38:08;;;;;;;;;;;20.20;80.90;;;;;;4788051;30;20052;-66
2022/06/03 09:40:41;;;;;;;2.67;2.47;;;20.20;68.50;;;;;;4788533;30;20391;-66
2022/06/03 09:43:23;;;;;;;3.22;2.50;;;20.20;77.80;;;;;;4787351;30;20111;-67
2022/06/03 09:45:52;;;;;;;4.13;2.60;;;20.40;80.40;;;;;;4782298;30;20142;-66
2022/06/03 09:48:21;;;;;;;4.70;3.20;;;20.30;73.60;;;;;;4787680;29;20520;-66
2022/06/03 09:50:52;;;;;;;3.63;2.58;;;20.50;76.40;;;;;;4787601;29;20142;-67
2022/06/03 09:53:22;;;;;;;4.45;2.88;;;20.40;73.50;;;;;;4787313;29;20082;-66
2022/06/03 09:55:51;;;;;;;3.47;2.78;;;20.50;78.30;;;;;;4788132;29;20055;-66
2022/06/03 09:58:21;;;;;;;3.42;2.55;;;20.50;76.10;;;;;;4784806;29;20532;-67
2022/06/03 10:00:50;;;;;;;3.67;2.53;;;20.60;73.70;;;;;;4787082;30;20420;-66
2022/06/03 10:03:17;;;;;;;2.85;2.40;;;20.50;68.70;;;;;;4782510;30;20508;-66
2022/06/03 10:05:47;;;;;;;2.97;2.40;;;20.30;69.30;;;;;;4788121;30;20421;-66
2022/06/03 10:08:12;;;;;;;3.45;2.50;;;20.50;72.10;;;;;;4788013;30;20058;-66
2022/06/03 10:13:23;;;;;;;4.85;3.15;;;20.40;71.30;;;;;;4788302;30;20110;-66
2022/06/03 10:15:56;;;;;;;3.05;2.10;;;20.50;71.30;;;;;;4786662;30;20055;-66
2022/06/03 10:18:30;;;;;;;3.42;2.30;;;20.50;69.80;;;;;;4767751;30;20058;-66
2022/06/03 10:20:59;;;;;;;3.28;2.45;;;20.70;70.80;;;;;;4787481;29;20134;-67
2022/06/03 10:23:32;;;;;;;3.30;2.70;;;20.80;70.00;;;;;;4786246;29;20055;-67
2022/06/03 10:26:01;;;;;;;2.30;2.00;;;20.80;65.60;;;;;;4768770;30;20059;-66
2022/06/03 10:28:35;;;;;;;5.50;2.58;;;20.90;67.90;;;;;;4770604;30;20051;-66
2022/06/03 10:31:05;;;;;;;3.17;2.50;;;20.90;67.00;;;;;;4786839;30;20077;-67
2022/06/03 10:33:32;;;;;;;3.35;3.05;;;20.90;65.90;;;;;;4787172;30;20412;-67
2022/06/03 10:35:59;;;;;;;2.80;2.53;;;20.90;65.10;;;;;;4786330;30;20112;-66
2022/06/03 10:38:28;;;;;;;3.25;2.40;;;21.00;66.00;;;;;;4787573;30;20063;-66
2022/06/03 10:40:54;;;;;;;6.07;3.05;;;21.10;66.30;;;;;;4787182;29;20094;-67
2022/06/03 10:43:27;;;;;;;3.30;3.00;;;21.00;64.50;;;;;;4787669;30;20104;-66
2022/06/03 10:46:14;;;;;;;3.85;2.85;;;21.00;64.20;;;;;;4786286;30;20059;-66
2022/06/03 10:48:40;;;;;;;2.88;2.60;;;21.10;64.40;;;;;;4787938;30;20112;-66
2022/06/03 10:51:19;;;;;;;2.72;2.42;;;21.10;65.00;;;;;;4787424;30;20059;-66
2022/06/03 11:02:43;;;;;;;2.70;2.50;;;21.40;62.40;;;;;;4786233;30;20063;-67
2022/06/03 11:05:25;;;;;;;5.75;2.42;;;21.30;63.50;;;;;;4787841;30;20136;-68
2022/06/03 11:07:58;;;;;;;3.90;2.55;;;21.40;63.80;;;;;;4787312;29;20429;-67
2022/06/03 11:10:31;;;;;;;2.60;2.40;;;21.50;64.80;;;;;;4774063;30;20059;-67
2022/06/03 11:13:06;;;;;;;2.40;2.20;;;21.70;64.20;;;;;;4791204;30;20058;-66
2022/06/03 11:15:41;;;;;;;3.88;2.38;;;21.70;61.30;;;;;;4791584;30;20078;-67
2022/06/03 11:18:31;;;;;;;4.50;2.13;;;21.50;61.00;;;;;;4789561;29;20096;-67
2022/06/03 11:21:16;;;;;;;2.75;2.45;;;21.50;61.30;;;;;;4789641;30;20055;-69
2022/06/03 11:23:42;;;;;;;2.58;2.13;;;21.40;60.60;;;;;;4789913;29;20127;-68
2022/06/03 11:26:08;;;;;;;4.18;2.50;;;21.60;63.60;;;;;;4788599;30;20138;-69
2022/06/03 11:28:42;;;;;;;2.80;2.60;;;21.60;63.50;;;;;;4790208;29;20070;-67
2022/06/03 11:31:13;;;;;;;3.33;3.00;;;21.90;62.10;;;;;;4790239;30;20477;-68
2022/06/03 11:33:42;;;;;;;5.73;2.40;;;21.80;61.10;;;;;;4790067;30;20067;-69
2022/06/03 11:36:40;;;;;;;2.60;2.40;;;21.70;60.50;;;;;;4774476;30;20062;-69
2022/06/03 11:39:16;;;;;;;2.40;2.20;;;21.70;59.80;;;;;;4774882;30;20060;-69
2022/06/03 11:41:46;;;;;;;2.75;2.35;;;21.80;60.40;;;;;;4789396;29;20093;-69
2022/06/03 11:44:28;;;;;;;5.88;2.42;;;21.90;61.00;;;;;;4790129;29;20377;-69
2022/06/03 11:47:02;;;;;;;2.50;2.20;;;21.90;59.20;;;;;;4790255;29;20103;-69
2022/06/03 11:49:28;;;;;;;2.42;2.22;;;21.90;58.90;;;;;;4788409;29;20393;-69
2022/06/03 11:51:54;;;;;;;3.13;2.33;;;21.90;60.30;;;;;;4789570;30;20062;-69
2022/06/03 11:54:23;;;;;;;3.28;2.30;;;22.00;59.80;;;;;;4790823;29;20059;-68
2022/06/03 11:56:49;;;;;;;2.42;2.25;;;21.80;59.30;;;;;;4790431;29;20074;-68
2022/06/03 11:59:26;;;;;;;3.13;2.40;;;21.60;59.80;;;;;;4790715;30;20052;-69
2022/06/03 12:02:06;;;;;;;2.63;2.42;;;21.60;59.40;;;;;;4789077;29;20051;-69
2022/06/03 12:04:59;;;;;;;2.78;2.25;;;21.70;59.80;;;;;;4788773;30;20087;-68
2022/06/03 12:07:36;;;;;;;2.55;1.98;;;21.80;58.70;;;;;;4790007;30;20067;-69
2022/06/03 12:10:20;;;;;;;1.98;1.77;;;21.90;58.70;;;;;;4788373;30;20055;-67
2022/06/03 12:15:35;;;;;;;2.35;2.15;;;22.10;59.10;;;;;;4789816;30;20051;-67
2022/06/03 12:18:06;;;;;;;2.55;2.05;;;22.30;59.30;;;;;;4789762;30;20071;-67
2022/06/03 12:20:32;;;;;;;2.38;2.17;;;22.20;58.60;;;;;;4790570;30;20063;-67
2022/06/03 12:23:12;;;;;;;3.22;2.20;;;22.10;58.30;;;;;;4789886;30;20516;-67
2022/06/03 12:25:41;;;;;;;3.10;2.08;;;21.90;57.40;;;;;;4787725;29;20508;-68
2022/06/03 12:28:20;;;;;;;1.88;1.77;;;21.90;58.00;;;;;;4789919;29;20130;-67
2022/06/03 12:30:53;;;;;;;2.47;2.28;;;22.00;56.80;;;;;;4789626;29;20067;-67
2022/06/03 12:37:35;;;;;;;1.98;1.48;;;22.00;56.80;;;;;;4772515;30;20112;-66
2022/06/03 12:40:52;;;;;;;4.13;2.38;;;22.10;57.20;;;;;;4772752;30;20055;-66
2022/06/03 12:43:28;;;;;;;2.22;1.60;;;22.00;57.00;;;;;;4776328;30;20059;-66
2022/06/03 12:46:31;;;;;;;2.25;1.70;;;22.10;59.10;;;;;;4772327;30;20094;-66
2022/06/03 12:49:00;;;;;;;2.40;1.50;;;22.10;57.60;;;;;;4774000;29;20397;-67
2022/06/03 12:51:41;;;;;;;4.22;1.98;;;22.10;57.50;;;;;;4773115;30;20086;-67
2022/06/03 12:54:41;;;;;;;2.10;1.98;;;22.10;56.80;;;;;;4773536;30;20058;-68
2022/06/03 12:57:19;;;;;;;2.85;1.85;;;22.10;56.90;;;;;;4771549;30;20043;-68
2022/06/03 12:59:55;;;;;;;5.13;1.90;;;22.20;57.30;;;;;;4784858;29;20059;-66
2022/06/03 13:03:03;;;;;;;2.00;1.90;;;22.30;57.40;;;;;;4785727;29;20135;-67
2022/06/03 13:05:37;;;;;;;3.10;2.17;;;22.30;54.80;;;;;;4784785;29;20502;-66
2022/06/03 13:08:10;;;;;;;2.08;1.67;;;22.20;56.40;;;;;;4788890;29;20094;-66
2022/06/03 13:12:00;;;;;;;3.78;2.13;;;22.10;56.90;;;;;;4772697;30;20083;-67
2022/06/03 13:14:34;;;;;;;3.60;2.20;;;22.30;57.20;;;;;;4786588;29;20070;-67
2022/06/03 13:16:59;;;;;;;4.72;2.00;;;22.80;57.10;;;;;;4785515;29;20342;-67
2022/06/03 13:22:58;;;;;;;2.35;1.90;;;22.20;57.20;;;;;;4733158;30;20075;-68
2022/06/03 13:30:09;;;;;;;2.28;1.90;;;22.30;56.60;;;;;;4730855;30;20402;-68
2022/06/03 13:55:12;;;;;;;2.35;1.92;;;22.50;54.50;;;;;;4770074;30;20556;-66
2022/06/03 14:17:12;;;;;;;3.95;1.85;;;22.60;57.20;;;;;;4710842;30;20059;-67
2022/06/03 14:19:51;;;;;;;1.70;1.60;;;22.70;57.10;;;;;;4735450;30;20067;-67
2022/06/03 14:22:42;;;;;;;3.17;1.70;;;22.70;56.30;;;;;;4745202;30;20067;-66
2022/06/03 14:25:26;;;;;;;3.47;1.98;;;22.60;56.20;;;;;;4770653;30;20052;-66
2022/06/03 14:28:14;;;;;;;2.58;1.52;;;22.50;56.20;;;;;;4768951;30;20517;-67
2022/06/03 14:31:03;;;;;;;2.35;1.75;;;22.50;56.70;;;;;;4752447;30;20054;-66
2022/06/03 14:33:43;;;;;;;2.40;2.20;;;22.60;56.80;;;;;;4753992;30;20051;-65
2022/06/03 14:36:31;;;;;;;1.60;1.30;;;22.50;56.30;;;;;;4753327;30;20048;-66
2022/06/03 14:39:11;;;;;;;1.65;1.50;;;22.40;57.10;;;;;;4768097;30;20122;-67
2022/06/03 14:41:40;;;;;;;2.40;1.77;;;22.40;57.20;;;;;;4752410;30;20492;-66
2022/06/03 14:44:26;;;;;;;2.00;1.88;;;22.20;56.80;;;;;;4768844;30;20116;-67
2022/06/03 14:46:57;;;;;;;2.72;2.10;;;22.00;55.70;;;;;;4763991;30;20449;-66
2022/06/03 14:49:59;;;;;;;2.67;1.73;;;21.50;56.30;;;;;;4767928;30;20052;-66
2022/06/03 14:52:40;;;;;;;1.90;1.58;;;21.80;56.40;;;;;;4765767;30;20059;-66
2022/06/03 14:55:30;;;;;;;2.03;1.80;;;21.80;57.00;;;;;;4769941;30;20048;-66
2022/06/03 14:58:20;;;;;;;2.38;1.80;;;21.80;57.10;;;;;;4753610;30;20306;-67
2022/06/03 15:01:28;;;;;;;2.20;1.65;;;21.70;56.50;;;;;;4768214;30;20158;-68
2022/06/03 15:03:57;;;;;;;2.33;1.70;;;21.80;57.30;;;;;;4752531;30;20186;-68
2022/06/03 15:06:36;;;;;;;1.70;1.50;;;21.80;57.30;;;;;;4768420;30;20079;-68
2022/06/03 15:09:35;;;;;;;1.38;1.27;;;21.80;57.40;;;;;;4766769;30;20139;-67
2022/06/03 15:12:05;;;;;;;1.80;1.45;;;21.80;57.30;;;;;;4753950;30;20056;-68
2022/06/03 15:14:36;;;;;;;1.90;1.73;;;21.80;58.00;;;;;;4770293;30;20134;-67
2022/06/03 15:17:04;;;;;;;3.35;1.67;;;21.80;57.70;;;;;;4769589;30;20051;-67
2022/06/03 15:19:46;;;;;;;1.50;1.40;;;21.80;57.70;;;;;;4768599;30;20051;-67
2022/06/03 15:22:30;;;;;;;;;;;21.70;56.90;;;;;;4769635;30;20481;-67
2022/06/03 15:25:12;;;;;;;3.30;1.73;;;21.60;57.10;;;;;;4769890;30;19922;-67
2022/06/03 15:27:44;;;;;;;1.63;1.52;;;21.50;58.20;;;;;;4769762;30;20071;-67
2022/06/03 15:30:28;;;;;;;2.58;1.60;;;21.60;58.70;;;;;;4753855;30;20056;-68
2022/06/03 15:32:55;;;;;;;2.78;1.63;;;21.60;58.40;;;;;;4769304;30;20060;-67
2022/06/03 15:35:30;;;;;;;2.80;1.50;;;21.60;58.60;;;;;;4751108;30;20086;-68